<?xml version="1.0" encoding="UTF-8" standalone="no" ?>
<gpx xmlns="http://www.topografix.com/GPX/1/1" xmlns:xsi="http://www.w3.org/2001/XMLSchema-instance" xsi:schemaLocation="http://www.topografix.com/GPX/1/1 http://www.topografix.com/GPX/1/1/gpx.xsd" version="1.1" creator="VisuGPX - https://www.visugpx.com">
  <metadata>
    <name>Liege bastogne liege 36 k</name>
  </metadata>
  <wpt lat="50.6453" lon="5.57239">
    <ele>69.5</ele>
    <name><![CDATA[001 Départ]]></name>
  </wpt>
  <wpt lat="50.62056" lon="5.57792">
    <ele>66.9</ele>
    <name><![CDATA[002 Pont de Fragnée]]></name>
  </wpt>
  <wpt lat="50.54973" lon="5.66431">
    <ele>298.8</ele>
    <name><![CDATA[003 Monument]]></name>
  </wpt>
  <wpt lat="50.47986" lon="5.71208">
    <ele>137.1</ele>
    <name><![CDATA[004 Remouchamps]]></name>
  </wpt>
  <wpt lat="50.44105" lon="5.66574">
    <ele>229.5</ele>
    <name><![CDATA[005 Chateau de Harzé]]></name>
  </wpt>
  <wpt lat="50.18216" lon="5.5744">
    <ele>224.1</ele>
    <name><![CDATA[006 La Roche]]></name>
  </wpt>
  <wpt lat="50.00638" lon="5.72083">
    <ele>506.6</ele>
    <name><![CDATA[007 Bastogne]]></name>
  </wpt>
  <wpt lat="50.2877" lon="5.91523">
    <ele>365.7</ele>
    <name><![CDATA[008 Houffalize]]></name>
  </wpt>
  <wpt lat="50.35764" lon="5.91605">
    <ele>480.5</ele>
    <name><![CDATA[009 Wanne]]></name>
  </wpt>
  <wpt lat="50.39326" lon="5.93064">
    <ele>284.6</ele>
    <name><![CDATA[010 Stavelot]]></name>
  </wpt>
  <wpt lat="50.49188" lon="5.86258">
    <ele>252.4</ele>
    <name><![CDATA[011 Spa]]></name>
  </wpt>
  <wpt lat="50.49232" lon="5.69933">
    <ele>287.7</ele>
    <name><![CDATA[012 La Redoute]]></name>
  </wpt>
  <wpt lat="50.65577" lon="5.53003">
    <ele>182.8</ele>
    <name><![CDATA[013 Ans]]></name>
  </wpt>
  <trk>
    <name><![CDATA[Liege bastogne liege 36 k_4]]></name>
    <trkseg>
      <trkpt lat="50.48863" lon="5.69463">
        <ele>311.12</ele>
        <time>2010-04-02T14:26:23Z</time>
      </trkpt>
      <trkpt lat="50.48708" lon="5.69316">
        <ele>306.8</ele>
        <time>2010-04-02T14:26:36Z</time>
      </trkpt>
      <trkpt lat="50.48627" lon="5.69245">
        <ele>301.99</ele>
        <time>2010-04-02T14:26:45Z</time>
      </trkpt>
      <trkpt lat="50.48624" lon="5.69238">
        <ele>301.51</ele>
        <time>2010-04-02T14:26:46Z</time>
      </trkpt>
      <trkpt lat="50.48623" lon="5.69231">
        <ele>301.03</ele>
        <time>2010-04-02T14:26:47Z</time>
      </trkpt>
      <trkpt lat="50.48624" lon="5.69224">
        <ele>301.03</ele>
        <time>2010-04-02T14:26:48Z</time>
      </trkpt>
      <trkpt lat="50.48628" lon="5.69216">
        <ele>300.55</ele>
        <time>2010-04-02T14:26:49Z</time>
      </trkpt>
      <trkpt lat="50.48633" lon="5.69209">
        <ele>300.07</ele>
        <time>2010-04-02T14:26:50Z</time>
      </trkpt>
      <trkpt lat="50.48702" lon="5.69108">
        <ele>294.78</ele>
        <time>2010-04-02T14:26:59Z</time>
      </trkpt>
      <trkpt lat="50.48824" lon="5.68926">
        <ele>288.05</ele>
        <time>2010-04-02T14:27:11Z</time>
      </trkpt>
      <trkpt lat="50.48953" lon="5.68728">
        <ele>280.84</ele>
        <time>2010-04-02T14:27:23Z</time>
      </trkpt>
      <trkpt lat="50.48968" lon="5.68688">
        <ele>280.84</ele>
        <time>2010-04-02T14:27:25Z</time>
      </trkpt>
      <trkpt lat="50.49022" lon="5.68487">
        <ele>287.57</ele>
        <time>2010-04-02T14:27:34Z</time>
      </trkpt>
      <trkpt lat="50.49115" lon="5.68186">
        <ele>293.34</ele>
        <time>2010-04-02T14:27:48Z</time>
      </trkpt>
      <trkpt lat="50.49123" lon="5.68167">
        <ele>293.82</ele>
        <time>2010-04-02T14:27:49Z</time>
      </trkpt>
      <trkpt lat="50.49133" lon="5.68148">
        <ele>294.3</ele>
        <time>2010-04-02T14:27:50Z</time>
      </trkpt>
      <trkpt lat="50.4927" lon="5.67909">
        <ele>296.22</ele>
        <time>2010-04-02T14:28:03Z</time>
      </trkpt>
      <trkpt lat="50.49278" lon="5.67894">
        <ele>296.22</ele>
        <time>2010-04-02T14:28:04Z</time>
      </trkpt>
      <trkpt lat="50.49283" lon="5.67878">
        <ele>296.7</ele>
        <time>2010-04-02T14:28:05Z</time>
      </trkpt>
      <trkpt lat="50.49286" lon="5.6786">
        <ele>297.67</ele>
        <time>2010-04-02T14:28:06Z</time>
      </trkpt>
      <trkpt lat="50.49285" lon="5.67841">
        <ele>297.67</ele>
        <time>2010-04-02T14:28:07Z</time>
      </trkpt>
      <trkpt lat="50.49283" lon="5.67821">
        <ele>298.15</ele>
        <time>2010-04-02T14:28:08Z</time>
      </trkpt>
      <trkpt lat="50.49285" lon="5.67579">
        <ele>298.63</ele>
        <time>2010-04-02T14:28:19Z</time>
      </trkpt>
      <trkpt lat="50.49289" lon="5.67415">
        <ele>295.74</ele>
        <time>2010-04-02T14:28:27Z</time>
      </trkpt>
      <trkpt lat="50.49286" lon="5.67396">
        <ele>295.74</ele>
        <time>2010-04-02T14:28:28Z</time>
      </trkpt>
      <trkpt lat="50.4928" lon="5.67311">
        <ele>294.3</ele>
        <time>2010-04-02T14:28:33Z</time>
      </trkpt>
      <trkpt lat="50.49282" lon="5.67297">
        <ele>294.3</ele>
        <time>2010-04-02T14:28:34Z</time>
      </trkpt>
      <trkpt lat="50.49286" lon="5.67285">
        <ele>293.82</ele>
        <time>2010-04-02T14:28:35Z</time>
      </trkpt>
      <trkpt lat="50.49293" lon="5.67276">
        <ele>293.34</ele>
        <time>2010-04-02T14:28:36Z</time>
      </trkpt>
      <trkpt lat="50.493" lon="5.67268">
        <ele>293.34</ele>
        <time>2010-04-02T14:28:37Z</time>
      </trkpt>
      <trkpt lat="50.49309" lon="5.6726">
        <ele>292.38</ele>
        <time>2010-04-02T14:28:38Z</time>
      </trkpt>
      <trkpt lat="50.49318" lon="5.67252">
        <ele>291.9</ele>
        <time>2010-04-02T14:28:39Z</time>
      </trkpt>
      <trkpt lat="50.49328" lon="5.67246">
        <ele>291.42</ele>
        <time>2010-04-02T14:28:40Z</time>
      </trkpt>
      <trkpt lat="50.49338" lon="5.6724">
        <ele>290.94</ele>
        <time>2010-04-02T14:28:41Z</time>
      </trkpt>
      <trkpt lat="50.49367" lon="5.67226">
        <ele>290.94</ele>
        <time>2010-04-02T14:28:44Z</time>
      </trkpt>
      <trkpt lat="50.49374" lon="5.6722">
        <ele>290.94</ele>
        <time>2010-04-02T14:28:45Z</time>
      </trkpt>
      <trkpt lat="50.49379" lon="5.67211">
        <ele>291.42</ele>
        <time>2010-04-02T14:28:46Z</time>
      </trkpt>
      <trkpt lat="50.49384" lon="5.672">
        <ele>291.42</ele>
        <time>2010-04-02T14:28:47Z</time>
      </trkpt>
      <trkpt lat="50.49387" lon="5.67188">
        <ele>291.42</ele>
        <time>2010-04-02T14:28:48Z</time>
      </trkpt>
      <trkpt lat="50.4939" lon="5.67175">
        <ele>291.42</ele>
        <time>2010-04-02T14:28:49Z</time>
      </trkpt>
      <trkpt lat="50.49415" lon="5.67075">
        <ele>291.9</ele>
        <time>2010-04-02T14:28:58Z</time>
      </trkpt>
      <trkpt lat="50.49419" lon="5.67063">
        <ele>291.9</ele>
        <time>2010-04-02T14:29:01Z</time>
      </trkpt>
      <trkpt lat="50.49423" lon="5.67058">
        <ele>292.38</ele>
        <time>2010-04-02T14:29:02Z</time>
      </trkpt>
      <trkpt lat="50.49428" lon="5.67053">
        <ele>292.38</ele>
        <time>2010-04-02T14:29:03Z</time>
      </trkpt>
      <trkpt lat="50.49486" lon="5.67">
        <ele>290.94</ele>
        <time>2010-04-02T14:29:10Z</time>
      </trkpt>
      <trkpt lat="50.49548" lon="5.66948">
        <ele>289.01</ele>
        <time>2010-04-02T14:29:16Z</time>
      </trkpt>
      <trkpt lat="50.49558" lon="5.66948">
        <ele>289.01</ele>
        <time>2010-04-02T14:29:17Z</time>
      </trkpt>
      <trkpt lat="50.49569" lon="5.66952">
        <ele>289.01</ele>
        <time>2010-04-02T14:29:18Z</time>
      </trkpt>
      <trkpt lat="50.49666" lon="5.66985">
        <ele>282.77</ele>
        <time>2010-04-02T14:29:25Z</time>
      </trkpt>
      <trkpt lat="50.49814" lon="5.66991">
        <ele>274.59</ele>
        <time>2010-04-02T14:29:34Z</time>
      </trkpt>
      <trkpt lat="50.49876" lon="5.66968">
        <ele>271.23</ele>
        <time>2010-04-02T14:29:38Z</time>
      </trkpt>
      <trkpt lat="50.49889" lon="5.66957">
        <ele>271.23</ele>
        <time>2010-04-02T14:29:39Z</time>
      </trkpt>
      <trkpt lat="50.49902" lon="5.66944">
        <ele>270.27</ele>
        <time>2010-04-02T14:29:40Z</time>
      </trkpt>
      <trkpt lat="50.49915" lon="5.66929">
        <ele>268.83</ele>
        <time>2010-04-02T14:29:41Z</time>
      </trkpt>
      <trkpt lat="50.49927" lon="5.66913">
        <ele>267.86</ele>
        <time>2010-04-02T14:29:42Z</time>
      </trkpt>
      <trkpt lat="50.49991" lon="5.66778">
        <ele>255.37</ele>
        <time>2010-04-02T14:29:49Z</time>
      </trkpt>
      <trkpt lat="50.49997" lon="5.66754">
        <ele>254.41</ele>
        <time>2010-04-02T14:29:50Z</time>
      </trkpt>
      <trkpt lat="50.50002" lon="5.66729">
        <ele>252.96</ele>
        <time>2010-04-02T14:29:51Z</time>
      </trkpt>
      <trkpt lat="50.50005" lon="5.66703">
        <ele>251.52</ele>
        <time>2010-04-02T14:29:52Z</time>
      </trkpt>
      <trkpt lat="50.50007" lon="5.66677">
        <ele>250.08</ele>
        <time>2010-04-02T14:29:53Z</time>
      </trkpt>
      <trkpt lat="50.50007" lon="5.66651">
        <ele>248.64</ele>
        <time>2010-04-02T14:29:54Z</time>
      </trkpt>
      <trkpt lat="50.50006" lon="5.66628">
        <ele>247.2</ele>
        <time>2010-04-02T14:29:55Z</time>
      </trkpt>
      <trkpt lat="50.50005" lon="5.66534">
        <ele>243.35</ele>
        <time>2010-04-02T14:30:00Z</time>
      </trkpt>
      <trkpt lat="50.50007" lon="5.66517">
        <ele>242.87</ele>
        <time>2010-04-02T14:30:01Z</time>
      </trkpt>
      <trkpt lat="50.50011" lon="5.66502">
        <ele>241.91</ele>
        <time>2010-04-02T14:30:02Z</time>
      </trkpt>
      <trkpt lat="50.50019" lon="5.6649">
        <ele>241.43</ele>
        <time>2010-04-02T14:30:03Z</time>
      </trkpt>
      <trkpt lat="50.50027" lon="5.66478">
        <ele>240.95</ele>
        <time>2010-04-02T14:30:04Z</time>
      </trkpt>
      <trkpt lat="50.50038" lon="5.66469">
        <ele>240.47</ele>
        <time>2010-04-02T14:30:05Z</time>
      </trkpt>
      <trkpt lat="50.50049" lon="5.66462">
        <ele>239.51</ele>
        <time>2010-04-02T14:30:06Z</time>
      </trkpt>
      <trkpt lat="50.5006" lon="5.66456">
        <ele>239.02</ele>
        <time>2010-04-02T14:30:07Z</time>
      </trkpt>
      <trkpt lat="50.50072" lon="5.6645">
        <ele>238.54</ele>
        <time>2010-04-02T14:30:08Z</time>
      </trkpt>
      <trkpt lat="50.5022" lon="5.66334">
        <ele>243.35</ele>
        <time>2010-04-02T14:30:22Z</time>
      </trkpt>
      <trkpt lat="50.50226" lon="5.66321">
        <ele>242.39</ele>
        <time>2010-04-02T14:30:23Z</time>
      </trkpt>
      <trkpt lat="50.5023" lon="5.66307">
        <ele>241.43</ele>
        <time>2010-04-02T14:30:24Z</time>
      </trkpt>
      <trkpt lat="50.50234" lon="5.66292">
        <ele>239.99</ele>
        <time>2010-04-02T14:30:25Z</time>
      </trkpt>
      <trkpt lat="50.50238" lon="5.66277">
        <ele>239.02</ele>
        <time>2010-04-02T14:30:26Z</time>
      </trkpt>
      <trkpt lat="50.50243" lon="5.66262">
        <ele>237.58</ele>
        <time>2010-04-02T14:30:27Z</time>
      </trkpt>
      <trkpt lat="50.5025" lon="5.66249">
        <ele>236.62</ele>
        <time>2010-04-02T14:30:28Z</time>
      </trkpt>
      <trkpt lat="50.50256" lon="5.66237">
        <ele>235.66</ele>
        <time>2010-04-02T14:30:29Z</time>
      </trkpt>
      <trkpt lat="50.50263" lon="5.66228">
        <ele>235.18</ele>
        <time>2010-04-02T14:30:30Z</time>
      </trkpt>
      <trkpt lat="50.5027" lon="5.6622">
        <ele>235.18</ele>
        <time>2010-04-02T14:30:31Z</time>
      </trkpt>
      <trkpt lat="50.50324" lon="5.66167">
        <ele>236.14</ele>
        <time>2010-04-02T14:30:38Z</time>
      </trkpt>
      <trkpt lat="50.50333" lon="5.66164">
        <ele>234.7</ele>
        <time>2010-04-02T14:30:39Z</time>
      </trkpt>
      <trkpt lat="50.50342" lon="5.66162">
        <ele>233.26</ele>
        <time>2010-04-02T14:30:40Z</time>
      </trkpt>
      <trkpt lat="50.50351" lon="5.6616">
        <ele>233.26</ele>
        <time>2010-04-02T14:30:41Z</time>
      </trkpt>
      <trkpt lat="50.50358" lon="5.6616">
        <ele>234.22</ele>
        <time>2010-04-02T14:30:42Z</time>
      </trkpt>
      <trkpt lat="50.50364" lon="5.66159">
        <ele>234.7</ele>
        <time>2010-04-02T14:30:43Z</time>
      </trkpt>
      <trkpt lat="50.50378" lon="5.66162">
        <ele>236.14</ele>
        <time>2010-04-02T14:30:45Z</time>
      </trkpt>
      <trkpt lat="50.50385" lon="5.66166">
        <ele>236.14</ele>
        <time>2010-04-02T14:30:46Z</time>
      </trkpt>
      <trkpt lat="50.50392" lon="5.66171">
        <ele>235.66</ele>
        <time>2010-04-02T14:30:47Z</time>
      </trkpt>
      <trkpt lat="50.50477" lon="5.66261">
        <ele>228.45</ele>
        <time>2010-04-02T14:30:58Z</time>
      </trkpt>
      <trkpt lat="50.50513" lon="5.6629">
        <ele>227.49</ele>
        <time>2010-04-02T14:31:02Z</time>
      </trkpt>
      <trkpt lat="50.50522" lon="5.6629">
        <ele>228.45</ele>
        <time>2010-04-02T14:31:03Z</time>
      </trkpt>
      <trkpt lat="50.50534" lon="5.66296">
        <ele>227.49</ele>
        <time>2010-04-02T14:31:04Z</time>
      </trkpt>
      <trkpt lat="50.50546" lon="5.66297">
        <ele>227.49</ele>
        <time>2010-04-02T14:31:05Z</time>
      </trkpt>
      <trkpt lat="50.50558" lon="5.66298">
        <ele>227.49</ele>
        <time>2010-04-02T14:31:06Z</time>
      </trkpt>
      <trkpt lat="50.5058" lon="5.66291">
        <ele>227.49</ele>
        <time>2010-04-02T14:31:08Z</time>
      </trkpt>
      <trkpt lat="50.50591" lon="5.66285">
        <ele>227.49</ele>
        <time>2010-04-02T14:31:09Z</time>
      </trkpt>
      <trkpt lat="50.50601" lon="5.66278">
        <ele>227.49</ele>
        <time>2010-04-02T14:31:10Z</time>
      </trkpt>
      <trkpt lat="50.50611" lon="5.66269">
        <ele>227.01</ele>
        <time>2010-04-02T14:31:11Z</time>
      </trkpt>
      <trkpt lat="50.5062" lon="5.66259">
        <ele>225.57</ele>
        <time>2010-04-02T14:31:12Z</time>
      </trkpt>
      <trkpt lat="50.50629" lon="5.66248">
        <ele>224.61</ele>
        <time>2010-04-02T14:31:13Z</time>
      </trkpt>
      <trkpt lat="50.5068" lon="5.66193">
        <ele>226.05</ele>
        <time>2010-04-06T06:49:31Z</time>
      </trkpt>
      <trkpt lat="50.50685" lon="5.66193">
        <ele>225.57</ele>
        <time>2010-04-06T06:49:32Z</time>
      </trkpt>
      <trkpt lat="50.50694" lon="5.66193">
        <ele>225.09</ele>
        <time>2010-04-06T06:49:34Z</time>
      </trkpt>
      <trkpt lat="50.50699" lon="5.6619">
        <ele>224.61</ele>
        <time>2010-04-06T06:49:35Z</time>
      </trkpt>
      <trkpt lat="50.50703" lon="5.66184">
        <ele>224.61</ele>
        <time>2010-04-06T06:49:36Z</time>
      </trkpt>
      <trkpt lat="50.50707" lon="5.66176">
        <ele>224.12</ele>
        <time>2010-04-06T06:49:37Z</time>
      </trkpt>
      <trkpt lat="50.5071" lon="5.66166">
        <ele>223.64</ele>
        <time>2010-04-06T06:49:38Z</time>
      </trkpt>
      <trkpt lat="50.50718" lon="5.66147">
        <ele>223.16</ele>
        <time>2010-04-06T06:49:40Z</time>
      </trkpt>
      <trkpt lat="50.50725" lon="5.66137">
        <ele>222.68</ele>
        <time>2010-04-06T06:49:41Z</time>
      </trkpt>
      <trkpt lat="50.50732" lon="5.66127">
        <ele>222.2</ele>
        <time>2010-04-06T06:49:42Z</time>
      </trkpt>
      <trkpt lat="50.50821" lon="5.66023">
        <ele>221.24</ele>
        <time>2010-04-06T06:49:51Z</time>
      </trkpt>
      <trkpt lat="50.50884" lon="5.65972">
        <ele>223.64</ele>
        <time>2010-04-06T06:49:57Z</time>
      </trkpt>
      <trkpt lat="50.50896" lon="5.65966">
        <ele>224.12</ele>
        <time>2010-04-06T06:49:58Z</time>
      </trkpt>
      <trkpt lat="50.51003" lon="5.65919">
        <ele>232.3</ele>
        <time>2010-04-06T06:50:06Z</time>
      </trkpt>
      <trkpt lat="50.51105" lon="5.65908">
        <ele>238.54</ele>
        <time>2010-04-06T06:50:13Z</time>
      </trkpt>
      <trkpt lat="50.51253" lon="5.65922">
        <ele>252.48</ele>
        <time>2010-04-06T06:50:24Z</time>
      </trkpt>
      <trkpt lat="50.51378" lon="5.65939">
        <ele>260.65</ele>
        <time>2010-04-06T06:50:34Z</time>
      </trkpt>
      <trkpt lat="50.51482" lon="5.65972">
        <ele>268.83</ele>
        <time>2010-04-06T06:50:44Z</time>
      </trkpt>
      <trkpt lat="50.51599" lon="5.66002">
        <ele>278.44</ele>
        <time>2010-04-06T06:50:56Z</time>
      </trkpt>
      <trkpt lat="50.51683" lon="5.66005">
        <ele>284.69</ele>
        <time>2010-04-06T06:51:05Z</time>
      </trkpt>
      <trkpt lat="50.51778" lon="5.65995">
        <ele>290.46</ele>
        <time>2010-04-06T06:51:15Z</time>
      </trkpt>
      <trkpt lat="50.51886" lon="5.65973">
        <ele>292.86</ele>
        <time>2010-04-06T06:51:25Z</time>
      </trkpt>
      <trkpt lat="50.52016" lon="5.65947">
        <ele>290.94</ele>
        <time>2010-04-06T06:51:35Z</time>
      </trkpt>
      <trkpt lat="50.52155" lon="5.65882">
        <ele>284.21</ele>
        <time>2010-04-06T06:51:45Z</time>
      </trkpt>
      <trkpt lat="50.5231" lon="5.65826">
        <ele>277.48</ele>
        <time>2010-04-06T06:51:56Z</time>
      </trkpt>
      <trkpt lat="50.52425" lon="5.65781">
        <ele>272.67</ele>
        <time>2010-04-06T06:52:02Z</time>
      </trkpt>
      <trkpt lat="50.52693" lon="5.65686">
        <ele>267.38</ele>
        <time>2010-04-06T06:52:14Z</time>
      </trkpt>
      <trkpt lat="50.52896" lon="5.65608">
        <ele>266.42</ele>
        <time>2010-04-06T06:52:24Z</time>
      </trkpt>
      <trkpt lat="50.53052" lon="5.65551">
        <ele>264.02</ele>
        <time>2010-04-06T06:52:34Z</time>
      </trkpt>
      <trkpt lat="50.53133" lon="5.65523">
        <ele>264.02</ele>
        <time>2010-04-06T06:52:41Z</time>
      </trkpt>
      <trkpt lat="50.53244" lon="5.65499">
        <ele>264.5</ele>
        <time>2010-04-06T06:52:49Z</time>
      </trkpt>
      <trkpt lat="50.53263" lon="5.65486">
        <ele>264.5</ele>
        <time>2010-04-06T06:52:50Z</time>
      </trkpt>
      <trkpt lat="50.53365" lon="5.6542">
        <ele>264.98</ele>
        <time>2010-04-06T06:52:54Z</time>
      </trkpt>
      <trkpt lat="50.5341" lon="5.65396">
        <ele>265.46</ele>
        <time>2010-04-06T06:52:56Z</time>
      </trkpt>
      <trkpt lat="50.53432" lon="5.65391">
        <ele>265.46</ele>
        <time>2010-04-06T06:52:57Z</time>
      </trkpt>
      <trkpt lat="50.53602" lon="5.65371">
        <ele>264.02</ele>
        <time>2010-04-06T06:53:04Z</time>
      </trkpt>
      <trkpt lat="50.53746" lon="5.65333">
        <ele>264.5</ele>
        <time>2010-04-06T06:53:11Z</time>
      </trkpt>
      <trkpt lat="50.53866" lon="5.65293">
        <ele>264.5</ele>
        <time>2010-04-06T06:53:19Z</time>
      </trkpt>
      <trkpt lat="50.53911" lon="5.65278">
        <ele>264.5</ele>
        <time>2010-04-06T06:53:25Z</time>
      </trkpt>
      <trkpt lat="50.53931" lon="5.65272">
        <ele>264.02</ele>
        <time>2010-04-06T06:53:31Z</time>
      </trkpt>
      <trkpt lat="50.53949" lon="5.65261">
        <ele>263.54</ele>
        <time>2010-04-06T06:53:35Z</time>
      </trkpt>
      <trkpt lat="50.53948" lon="5.65253">
        <ele>263.06</ele>
        <time>2010-04-06T06:53:36Z</time>
      </trkpt>
      <trkpt lat="50.53946" lon="5.65237">
        <ele>263.06</ele>
        <time>2010-04-06T06:53:37Z</time>
      </trkpt>
      <trkpt lat="50.53945" lon="5.65218">
        <ele>262.58</ele>
        <time>2010-04-06T06:53:38Z</time>
      </trkpt>
      <trkpt lat="50.53943" lon="5.6519">
        <ele>262.1</ele>
        <time>2010-04-06T06:53:39Z</time>
      </trkpt>
      <trkpt lat="50.5394" lon="5.65026">
        <ele>260.17</ele>
        <time>2010-04-06T06:53:43Z</time>
      </trkpt>
      <trkpt lat="50.53935" lon="5.64712">
        <ele>255.85</ele>
        <time>2010-04-06T06:53:49Z</time>
      </trkpt>
      <trkpt lat="50.53931" lon="5.64495">
        <ele>252.96</ele>
        <time>2010-04-06T06:53:54Z</time>
      </trkpt>
      <trkpt lat="50.539" lon="5.64203">
        <ele>254.41</ele>
        <time>2010-04-06T06:54:02Z</time>
      </trkpt>
      <trkpt lat="50.5387" lon="5.64002">
        <ele>255.85</ele>
        <time>2010-04-06T06:54:09Z</time>
      </trkpt>
      <trkpt lat="50.5381" lon="5.63817">
        <ele>255.37</ele>
        <time>2010-04-06T06:54:16Z</time>
      </trkpt>
      <trkpt lat="50.53717" lon="5.63615">
        <ele>252.48</ele>
        <time>2010-04-06T06:54:25Z</time>
      </trkpt>
      <trkpt lat="50.53629" lon="5.63387">
        <ele>252.48</ele>
        <time>2010-04-06T06:54:35Z</time>
      </trkpt>
      <trkpt lat="50.53575" lon="5.63169">
        <ele>255.85</ele>
        <time>2010-04-06T06:54:44Z</time>
      </trkpt>
      <trkpt lat="50.53545" lon="5.63062">
        <ele>256.81</ele>
        <time>2010-04-06T06:54:50Z</time>
      </trkpt>
      <trkpt lat="50.53539" lon="5.63044">
        <ele>256.81</ele>
        <time>2010-04-06T06:54:55Z</time>
      </trkpt>
      <trkpt lat="50.53528" lon="5.63015">
        <ele>257.29</ele>
        <time>2010-04-06T06:55:09Z</time>
      </trkpt>
      <trkpt lat="50.53492" lon="5.62882">
        <ele>258.73</ele>
        <time>2010-04-06T06:55:19Z</time>
      </trkpt>
      <trkpt lat="50.53472" lon="5.62773">
        <ele>260.65</ele>
        <time>2010-04-06T06:55:26Z</time>
      </trkpt>
      <trkpt lat="50.53466" lon="5.62757">
        <ele>260.65</ele>
        <time>2010-04-06T06:55:27Z</time>
      </trkpt>
      <trkpt lat="50.5346" lon="5.62743">
        <ele>261.14</ele>
        <time>2010-04-06T06:55:28Z</time>
      </trkpt>
      <trkpt lat="50.53396" lon="5.62633">
        <ele>259.69</ele>
        <time>2010-04-06T06:55:36Z</time>
      </trkpt>
      <trkpt lat="50.5332" lon="5.62506">
        <ele>255.37</ele>
        <time>2010-04-06T06:55:42Z</time>
      </trkpt>
      <trkpt lat="50.53209" lon="5.6231">
        <ele>246.23</ele>
        <time>2010-04-06T06:55:51Z</time>
      </trkpt>
      <trkpt lat="50.53199" lon="5.62296">
        <ele>245.75</ele>
        <time>2010-04-06T06:55:52Z</time>
      </trkpt>
      <trkpt lat="50.53189" lon="5.62285">
        <ele>245.27</ele>
        <time>2010-04-06T06:55:53Z</time>
      </trkpt>
      <trkpt lat="50.5317" lon="5.62268">
        <ele>244.31</ele>
        <time>2010-04-06T06:55:55Z</time>
      </trkpt>
      <trkpt lat="50.53165" lon="5.62257">
        <ele>244.31</ele>
        <time>2010-04-06T06:55:56Z</time>
      </trkpt>
      <trkpt lat="50.53162" lon="5.62242">
        <ele>244.31</ele>
        <time>2010-04-06T06:55:57Z</time>
      </trkpt>
      <trkpt lat="50.53161" lon="5.62223">
        <ele>244.31</ele>
        <time>2010-04-06T06:55:58Z</time>
      </trkpt>
      <trkpt lat="50.53162" lon="5.62195">
        <ele>244.31</ele>
        <time>2010-04-06T06:55:59Z</time>
      </trkpt>
      <trkpt lat="50.53164" lon="5.62013">
        <ele>244.31</ele>
        <time>2010-04-06T06:56:04Z</time>
      </trkpt>
      <trkpt lat="50.53163" lon="5.61746">
        <ele>245.75</ele>
        <time>2010-04-06T06:56:11Z</time>
      </trkpt>
      <trkpt lat="50.53144" lon="5.61548">
        <ele>248.64</ele>
        <time>2010-04-06T06:56:18Z</time>
      </trkpt>
      <trkpt lat="50.53137" lon="5.6137">
        <ele>247.68</ele>
        <time>2010-04-06T06:56:25Z</time>
      </trkpt>
      <trkpt lat="50.53142" lon="5.61137">
        <ele>246.23</ele>
        <time>2010-04-06T06:56:33Z</time>
      </trkpt>
      <trkpt lat="50.53139" lon="5.61113">
        <ele>246.72</ele>
        <time>2010-04-06T06:56:34Z</time>
      </trkpt>
      <trkpt lat="50.53134" lon="5.61088">
        <ele>246.72</ele>
        <time>2010-04-06T06:56:35Z</time>
      </trkpt>
      <trkpt lat="50.53087" lon="5.60865">
        <ele>245.27</ele>
        <time>2010-04-06T06:56:44Z</time>
      </trkpt>
      <trkpt lat="50.53044" lon="5.60673">
        <ele>244.79</ele>
        <time>2010-04-06T06:56:50Z</time>
      </trkpt>
      <trkpt lat="50.53019" lon="5.60419">
        <ele>242.39</ele>
        <time>2010-04-06T06:56:57Z</time>
      </trkpt>
      <trkpt lat="50.53012" lon="5.60328">
        <ele>241.43</ele>
        <time>2010-04-06T06:57:00Z</time>
      </trkpt>
      <trkpt lat="50.53013" lon="5.603">
        <ele>240.95</ele>
        <time>2010-04-06T06:57:01Z</time>
      </trkpt>
      <trkpt lat="50.53017" lon="5.60241">
        <ele>239.51</ele>
        <time>2010-04-06T06:57:03Z</time>
      </trkpt>
      <trkpt lat="50.53016" lon="5.60209">
        <ele>239.02</ele>
        <time>2010-04-06T06:57:04Z</time>
      </trkpt>
      <trkpt lat="50.53014" lon="5.60176">
        <ele>238.06</ele>
        <time>2010-04-06T06:57:05Z</time>
      </trkpt>
      <trkpt lat="50.52991" lon="5.59959">
        <ele>233.74</ele>
        <time>2010-04-06T06:57:12Z</time>
      </trkpt>
      <trkpt lat="50.52988" lon="5.59909">
        <ele>232.78</ele>
        <time>2010-04-06T06:57:14Z</time>
      </trkpt>
      <trkpt lat="50.5299" lon="5.59883">
        <ele>232.78</ele>
        <time>2010-04-06T06:57:15Z</time>
      </trkpt>
      <trkpt lat="50.52994" lon="5.59857">
        <ele>232.3</ele>
        <time>2010-04-06T06:57:16Z</time>
      </trkpt>
      <trkpt lat="50.52999" lon="5.5983">
        <ele>232.3</ele>
        <time>2010-04-06T06:57:17Z</time>
      </trkpt>
      <trkpt lat="50.53006" lon="5.59802">
        <ele>232.3</ele>
        <time>2010-04-06T06:57:18Z</time>
      </trkpt>
      <trkpt lat="50.53014" lon="5.59776">
        <ele>231.81</ele>
        <time>2010-04-06T06:57:19Z</time>
      </trkpt>
      <trkpt lat="50.53024" lon="5.5975">
        <ele>231.33</ele>
        <time>2010-04-06T06:57:20Z</time>
      </trkpt>
      <trkpt lat="50.53036" lon="5.59724">
        <ele>230.85</ele>
        <time>2010-04-06T06:57:21Z</time>
      </trkpt>
      <trkpt lat="50.53078" lon="5.59629">
        <ele>228.45</ele>
        <time>2010-04-06T06:57:25Z</time>
      </trkpt>
      <trkpt lat="50.53084" lon="5.59603">
        <ele>227.97</ele>
        <time>2010-04-06T06:57:26Z</time>
      </trkpt>
      <trkpt lat="50.53108" lon="5.59509">
        <ele>224.12</ele>
        <time>2010-04-06T06:57:30Z</time>
      </trkpt>
      <trkpt lat="50.53118" lon="5.59493">
        <ele>223.16</ele>
        <time>2010-04-06T06:57:31Z</time>
      </trkpt>
      <trkpt lat="50.53132" lon="5.59478">
        <ele>222.2</ele>
        <time>2010-04-06T06:57:32Z</time>
      </trkpt>
      <trkpt lat="50.53147" lon="5.59463">
        <ele>220.28</ele>
        <time>2010-04-06T06:57:33Z</time>
      </trkpt>
      <trkpt lat="50.53163" lon="5.59446">
        <ele>219.32</ele>
        <time>2010-04-06T06:57:34Z</time>
      </trkpt>
      <trkpt lat="50.53227" lon="5.59387">
        <ele>214.03</ele>
        <time>2010-04-06T06:57:38Z</time>
      </trkpt>
      <trkpt lat="50.53242" lon="5.5938">
        <ele>213.07</ele>
        <time>2010-04-06T06:57:39Z</time>
      </trkpt>
      <trkpt lat="50.53258" lon="5.59376">
        <ele>212.11</ele>
        <time>2010-04-06T06:57:40Z</time>
      </trkpt>
      <trkpt lat="50.53273" lon="5.59375">
        <ele>211.15</ele>
        <time>2010-04-06T06:57:41Z</time>
      </trkpt>
      <trkpt lat="50.53288" lon="5.59375">
        <ele>210.19</ele>
        <time>2010-04-06T06:57:42Z</time>
      </trkpt>
      <trkpt lat="50.53315" lon="5.5937">
        <ele>208.74</ele>
        <time>2010-04-06T06:57:44Z</time>
      </trkpt>
      <trkpt lat="50.53327" lon="5.59365">
        <ele>207.78</ele>
        <time>2010-04-06T06:57:45Z</time>
      </trkpt>
      <trkpt lat="50.53338" lon="5.59356">
        <ele>206.82</ele>
        <time>2010-04-06T06:57:46Z</time>
      </trkpt>
      <trkpt lat="50.53348" lon="5.59345">
        <ele>205.86</ele>
        <time>2010-04-06T06:57:47Z</time>
      </trkpt>
      <trkpt lat="50.53356" lon="5.5933">
        <ele>204.9</ele>
        <time>2010-04-06T06:57:48Z</time>
      </trkpt>
      <trkpt lat="50.53363" lon="5.59312">
        <ele>203.94</ele>
        <time>2010-04-06T06:57:49Z</time>
      </trkpt>
      <trkpt lat="50.53366" lon="5.59287">
        <ele>202.98</ele>
        <time>2010-04-06T06:57:50Z</time>
      </trkpt>
      <trkpt lat="50.53369" lon="5.59259">
        <ele>202.01</ele>
        <time>2010-04-06T06:57:51Z</time>
      </trkpt>
      <trkpt lat="50.53373" lon="5.59227">
        <ele>200.09</ele>
        <time>2010-04-06T06:57:52Z</time>
      </trkpt>
      <trkpt lat="50.53408" lon="5.58958">
        <ele>184.71</ele>
        <time>2010-04-06T06:58:01Z</time>
      </trkpt>
      <trkpt lat="50.53439" lon="5.58714">
        <ele>170.77</ele>
        <time>2010-04-06T06:58:10Z</time>
      </trkpt>
      <trkpt lat="50.53449" lon="5.58628">
        <ele>166.45</ele>
        <time>2010-04-06T06:58:14Z</time>
      </trkpt>
      <trkpt lat="50.53447" lon="5.58612">
        <ele>165.48</ele>
        <time>2010-04-06T06:58:15Z</time>
      </trkpt>
      <trkpt lat="50.53441" lon="5.58597">
        <ele>164.04</ele>
        <time>2010-04-06T06:58:16Z</time>
      </trkpt>
      <trkpt lat="50.53428" lon="5.58551">
        <ele>161.64</ele>
        <time>2010-04-06T06:58:18Z</time>
      </trkpt>
      <trkpt lat="50.53424" lon="5.58524">
        <ele>160.2</ele>
        <time>2010-04-06T06:58:19Z</time>
      </trkpt>
      <trkpt lat="50.5341" lon="5.58422">
        <ele>155.39</ele>
        <time>2010-04-06T06:58:23Z</time>
      </trkpt>
      <trkpt lat="50.53404" lon="5.584">
        <ele>153.95</ele>
        <time>2010-04-06T06:58:24Z</time>
      </trkpt>
      <trkpt lat="50.53326" lon="5.58182">
        <ele>141.45</ele>
        <time>2010-04-06T06:58:34Z</time>
      </trkpt>
      <trkpt lat="50.53258" lon="5.57977">
        <ele>128.95</ele>
        <time>2010-04-06T06:58:44Z</time>
      </trkpt>
      <trkpt lat="50.53203" lon="5.57811">
        <ele>119.82</ele>
        <time>2010-04-06T06:58:53Z</time>
      </trkpt>
      <trkpt lat="50.53182" lon="5.57715">
        <ele>114.53</ele>
        <time>2010-04-06T06:58:58Z</time>
      </trkpt>
      <trkpt lat="50.5316" lon="5.57561">
        <ele>107.32</ele>
        <time>2010-04-06T06:59:06Z</time>
      </trkpt>
      <trkpt lat="50.53145" lon="5.5741">
        <ele>101.56</ele>
        <time>2010-04-06T06:59:17Z</time>
      </trkpt>
      <trkpt lat="50.53133" lon="5.57337">
        <ele>98.19</ele>
        <time>2010-04-06T06:59:24Z</time>
      </trkpt>
      <trkpt lat="50.53131" lon="5.57326">
        <ele>97.71</ele>
        <time>2010-04-06T06:59:25Z</time>
      </trkpt>
      <trkpt lat="50.53131" lon="5.57256">
        <ele>92.9</ele>
        <time>2010-04-06T06:59:34Z</time>
      </trkpt>
      <trkpt lat="50.53131" lon="5.57217">
        <ele>91.94</ele>
        <time>2010-04-06T06:59:39Z</time>
      </trkpt>
      <trkpt lat="50.53132" lon="5.57208">
        <ele>91.94</ele>
        <time>2010-04-06T06:59:40Z</time>
      </trkpt>
      <trkpt lat="50.53134" lon="5.57199">
        <ele>91.46</ele>
        <time>2010-04-06T06:59:41Z</time>
      </trkpt>
      <trkpt lat="50.53148" lon="5.5714">
        <ele>91.46</ele>
        <time>2010-04-06T06:59:49Z</time>
      </trkpt>
      <trkpt lat="50.53162" lon="5.5706">
        <ele>91.94</ele>
        <time>2010-04-06T07:00:00Z</time>
      </trkpt>
      <trkpt lat="50.53182" lon="5.56955">
        <ele>92.9</ele>
        <time>2010-04-06T07:00:11Z</time>
      </trkpt>
      <trkpt lat="50.53211" lon="5.56858">
        <ele>92.9</ele>
        <time>2010-04-06T07:00:20Z</time>
      </trkpt>
      <trkpt lat="50.5325" lon="5.56746">
        <ele>93.39</ele>
        <time>2010-04-06T07:00:32Z</time>
      </trkpt>
      <trkpt lat="50.53253" lon="5.56738">
        <ele>93.39</ele>
        <time>2010-04-06T07:00:40Z</time>
      </trkpt>
      <trkpt lat="50.53263" lon="5.56715">
        <ele>96.27</ele>
        <time>2010-04-06T07:01:22Z</time>
      </trkpt>
      <trkpt lat="50.53269" lon="5.56707">
        <ele>96.27</ele>
        <time>2010-04-06T07:01:23Z</time>
      </trkpt>
      <trkpt lat="50.53277" lon="5.56699">
        <ele>95.79</ele>
        <time>2010-04-06T07:01:24Z</time>
      </trkpt>
      <trkpt lat="50.53366" lon="5.56606">
        <ele>95.79</ele>
        <time>2010-04-06T07:01:32Z</time>
      </trkpt>
      <trkpt lat="50.53389" lon="5.56581">
        <ele>97.23</ele>
        <time>2010-04-06T07:01:34Z</time>
      </trkpt>
      <trkpt lat="50.53401" lon="5.56572">
        <ele>97.71</ele>
        <time>2010-04-06T07:01:35Z</time>
      </trkpt>
      <trkpt lat="50.53413" lon="5.56567">
        <ele>98.19</ele>
        <time>2010-04-06T07:01:36Z</time>
      </trkpt>
      <trkpt lat="50.53426" lon="5.56568">
        <ele>98.67</ele>
        <time>2010-04-06T07:01:37Z</time>
      </trkpt>
      <trkpt lat="50.53439" lon="5.56573">
        <ele>99.63</ele>
        <time>2010-04-06T07:01:38Z</time>
      </trkpt>
      <trkpt lat="50.53453" lon="5.56582">
        <ele>100.11</ele>
        <time>2010-04-06T07:01:39Z</time>
      </trkpt>
      <trkpt lat="50.53468" lon="5.56595">
        <ele>101.08</ele>
        <time>2010-04-06T07:01:40Z</time>
      </trkpt>
      <trkpt lat="50.53485" lon="5.56609">
        <ele>102.04</ele>
        <time>2010-04-06T07:01:41Z</time>
      </trkpt>
      <trkpt lat="50.53546" lon="5.56645">
        <ele>104.92</ele>
        <time>2010-04-06T07:01:45Z</time>
      </trkpt>
      <trkpt lat="50.53557" lon="5.5666">
        <ele>104.92</ele>
        <time>2010-04-06T07:01:46Z</time>
      </trkpt>
      <trkpt lat="50.53564" lon="5.56682">
        <ele>105.88</ele>
        <time>2010-04-06T07:01:47Z</time>
      </trkpt>
      <trkpt lat="50.53571" lon="5.56705">
        <ele>107.32</ele>
        <time>2010-04-06T07:01:48Z</time>
      </trkpt>
      <trkpt lat="50.53577" lon="5.56733">
        <ele>108.77</ele>
        <time>2010-04-06T07:01:49Z</time>
      </trkpt>
      <trkpt lat="50.53584" lon="5.56763">
        <ele>109.73</ele>
        <time>2010-04-06T07:01:50Z</time>
      </trkpt>
      <trkpt lat="50.53616" lon="5.56986">
        <ele>119.34</ele>
        <time>2010-04-06T07:01:58Z</time>
      </trkpt>
      <trkpt lat="50.53647" lon="5.5731">
        <ele>132.8</ele>
        <time>2010-04-06T07:02:11Z</time>
      </trkpt>
      <trkpt lat="50.53672" lon="5.57501">
        <ele>137.13</ele>
        <time>2010-04-06T07:02:20Z</time>
      </trkpt>
      <trkpt lat="50.53698" lon="5.57732">
        <ele>138.09</ele>
        <time>2010-04-06T07:02:31Z</time>
      </trkpt>
      <trkpt lat="50.53721" lon="5.57885">
        <ele>133.28</ele>
        <time>2010-04-06T07:02:38Z</time>
      </trkpt>
      <trkpt lat="50.53719" lon="5.57905">
        <ele>132.8</ele>
        <time>2010-04-06T07:02:39Z</time>
      </trkpt>
      <trkpt lat="50.53714" lon="5.57924">
        <ele>132.32</ele>
        <time>2010-04-06T07:02:40Z</time>
      </trkpt>
      <trkpt lat="50.53709" lon="5.57943">
        <ele>131.84</ele>
        <time>2010-04-06T07:02:41Z</time>
      </trkpt>
      <trkpt lat="50.537" lon="5.5796">
        <ele>130.88</ele>
        <time>2010-04-06T07:02:42Z</time>
      </trkpt>
      <trkpt lat="50.53692" lon="5.57977">
        <ele>130.4</ele>
        <time>2010-04-06T07:02:43Z</time>
      </trkpt>
      <trkpt lat="50.53685" lon="5.57995">
        <ele>129.92</ele>
        <time>2010-04-06T07:02:44Z</time>
      </trkpt>
      <trkpt lat="50.53683" lon="5.58015">
        <ele>128.95</ele>
        <time>2010-04-06T07:02:45Z</time>
      </trkpt>
      <trkpt lat="50.53683" lon="5.58035">
        <ele>127.99</ele>
        <time>2010-04-06T07:02:46Z</time>
      </trkpt>
      <trkpt lat="50.53685" lon="5.58056">
        <ele>127.51</ele>
        <time>2010-04-06T07:02:47Z</time>
      </trkpt>
      <trkpt lat="50.5369" lon="5.58077">
        <ele>127.51</ele>
        <time>2010-04-06T07:02:48Z</time>
      </trkpt>
      <trkpt lat="50.53695" lon="5.58098">
        <ele>126.55</ele>
        <time>2010-04-06T07:02:49Z</time>
      </trkpt>
      <trkpt lat="50.53701" lon="5.58119">
        <ele>125.59</ele>
        <time>2010-04-06T07:02:50Z</time>
      </trkpt>
      <trkpt lat="50.53782" lon="5.58417">
        <ele>115.98</ele>
        <time>2010-04-06T07:03:03Z</time>
      </trkpt>
      <trkpt lat="50.53815" lon="5.58498">
        <ele>114.53</ele>
        <time>2010-04-06T07:03:07Z</time>
      </trkpt>
      <trkpt lat="50.53827" lon="5.58515">
        <ele>113.57</ele>
        <time>2010-04-06T07:03:08Z</time>
      </trkpt>
      <trkpt lat="50.53962" lon="5.58712">
        <ele>102.52</ele>
        <time>2010-04-06T07:03:20Z</time>
      </trkpt>
      <trkpt lat="50.53981" lon="5.58737">
        <ele>100.6</ele>
        <time>2010-04-06T07:03:23Z</time>
      </trkpt>
      <trkpt lat="50.53984" lon="5.58734">
        <ele>99.63</ele>
        <time>2010-04-06T07:03:24Z</time>
      </trkpt>
      <trkpt lat="50.53985" lon="5.58716">
        <ele>98.67</ele>
        <time>2010-04-06T07:03:27Z</time>
      </trkpt>
      <trkpt lat="50.53982" lon="5.58708">
        <ele>98.19</ele>
        <time>2010-04-06T07:03:28Z</time>
      </trkpt>
      <trkpt lat="50.53977" lon="5.58699">
        <ele>98.67</ele>
        <time>2010-04-06T07:03:29Z</time>
      </trkpt>
      <trkpt lat="50.53972" lon="5.58688">
        <ele>98.67</ele>
        <time>2010-04-06T07:03:30Z</time>
      </trkpt>
      <trkpt lat="50.53966" lon="5.58676">
        <ele>98.67</ele>
        <time>2010-04-06T07:03:31Z</time>
      </trkpt>
      <trkpt lat="50.53961" lon="5.58663">
        <ele>98.67</ele>
        <time>2010-04-06T07:03:32Z</time>
      </trkpt>
      <trkpt lat="50.53957" lon="5.58649">
        <ele>98.19</ele>
        <time>2010-04-06T07:03:33Z</time>
      </trkpt>
      <trkpt lat="50.53954" lon="5.58635">
        <ele>98.19</ele>
        <time>2010-04-06T07:03:34Z</time>
      </trkpt>
      <trkpt lat="50.53951" lon="5.58621">
        <ele>97.71</ele>
        <time>2010-04-06T07:03:35Z</time>
      </trkpt>
      <trkpt lat="50.5391" lon="5.58499">
        <ele>94.83</ele>
        <time>2010-04-06T07:03:44Z</time>
      </trkpt>
      <trkpt lat="50.53861" lon="5.58366">
        <ele>90.02</ele>
        <time>2010-04-06T07:03:52Z</time>
      </trkpt>
      <trkpt lat="50.53857" lon="5.58348">
        <ele>89.54</ele>
        <time>2010-04-06T07:03:53Z</time>
      </trkpt>
      <trkpt lat="50.53854" lon="5.58328">
        <ele>89.06</ele>
        <time>2010-04-06T07:03:54Z</time>
      </trkpt>
      <trkpt lat="50.53852" lon="5.58308">
        <ele>88.58</ele>
        <time>2010-04-06T07:03:55Z</time>
      </trkpt>
      <trkpt lat="50.53851" lon="5.58287">
        <ele>88.1</ele>
        <time>2010-04-06T07:03:56Z</time>
      </trkpt>
      <trkpt lat="50.53852" lon="5.58116">
        <ele>83.77</ele>
        <time>2010-04-06T07:04:05Z</time>
      </trkpt>
      <trkpt lat="50.53859" lon="5.58105">
        <ele>82.81</ele>
        <time>2010-04-06T07:04:06Z</time>
      </trkpt>
      <trkpt lat="50.53868" lon="5.58096">
        <ele>82.33</ele>
        <time>2010-04-06T07:04:07Z</time>
      </trkpt>
      <trkpt lat="50.53878" lon="5.58088">
        <ele>81.37</ele>
        <time>2010-04-06T07:04:08Z</time>
      </trkpt>
      <trkpt lat="50.5389" lon="5.58082">
        <ele>81.37</ele>
        <time>2010-04-06T07:04:09Z</time>
      </trkpt>
      <trkpt lat="50.53901" lon="5.58076">
        <ele>81.37</ele>
        <time>2010-04-06T07:04:10Z</time>
      </trkpt>
      <trkpt lat="50.53986" lon="5.5801">
        <ele>81.85</ele>
        <time>2010-04-06T07:04:19Z</time>
      </trkpt>
      <trkpt lat="50.53994" lon="5.58004">
        <ele>82.33</ele>
        <time>2010-04-06T07:04:20Z</time>
      </trkpt>
      <trkpt lat="50.54071" lon="5.57956">
        <ele>82.33</ele>
        <time>2010-04-06T07:04:30Z</time>
      </trkpt>
      <trkpt lat="50.54077" lon="5.57951">
        <ele>82.81</ele>
        <time>2010-04-06T07:04:31Z</time>
      </trkpt>
      <trkpt lat="50.54081" lon="5.57943">
        <ele>82.81</ele>
        <time>2010-04-06T07:04:32Z</time>
      </trkpt>
      <trkpt lat="50.54083" lon="5.57933">
        <ele>82.81</ele>
        <time>2010-04-06T07:04:33Z</time>
      </trkpt>
      <trkpt lat="50.54081" lon="5.57922">
        <ele>81.85</ele>
        <time>2010-04-06T07:04:34Z</time>
      </trkpt>
      <trkpt lat="50.54078" lon="5.57911">
        <ele>81.37</ele>
        <time>2010-04-06T07:04:35Z</time>
      </trkpt>
      <trkpt lat="50.54075" lon="5.579">
        <ele>81.37</ele>
        <time>2010-04-06T07:04:36Z</time>
      </trkpt>
      <trkpt lat="50.54071" lon="5.57881">
        <ele>80.89</ele>
        <time>2010-04-06T07:04:38Z</time>
      </trkpt>
      <trkpt lat="50.5407" lon="5.57873">
        <ele>80.89</ele>
        <time>2010-04-06T07:04:39Z</time>
      </trkpt>
      <trkpt lat="50.54071" lon="5.57865">
        <ele>80.89</ele>
        <time>2010-04-06T07:04:40Z</time>
      </trkpt>
      <trkpt lat="50.54076" lon="5.57857">
        <ele>81.85</ele>
        <time>2010-04-06T07:04:41Z</time>
      </trkpt>
      <trkpt lat="50.54082" lon="5.57853">
        <ele>81.37</ele>
        <time>2010-04-06T07:04:42Z</time>
      </trkpt>
      <trkpt lat="50.54088" lon="5.57849">
        <ele>81.85</ele>
        <time>2010-04-06T07:04:43Z</time>
      </trkpt>
      <trkpt lat="50.54094" lon="5.57846">
        <ele>82.33</ele>
        <time>2010-04-06T07:04:44Z</time>
      </trkpt>
      <trkpt lat="50.54154" lon="5.57804">
        <ele>87.14</ele>
        <time>2010-04-06T07:04:52Z</time>
      </trkpt>
      <trkpt lat="50.54162" lon="5.57801">
        <ele>88.1</ele>
        <time>2010-04-06T07:04:53Z</time>
      </trkpt>
      <trkpt lat="50.5417" lon="5.57801">
        <ele>88.58</ele>
        <time>2010-04-06T07:04:54Z</time>
      </trkpt>
      <trkpt lat="50.54178" lon="5.57805">
        <ele>89.06</ele>
        <time>2010-04-06T07:04:55Z</time>
      </trkpt>
      <trkpt lat="50.54184" lon="5.57811">
        <ele>89.54</ele>
        <time>2010-04-06T07:04:56Z</time>
      </trkpt>
      <trkpt lat="50.54191" lon="5.57822">
        <ele>90.02</ele>
        <time>2010-04-06T07:04:57Z</time>
      </trkpt>
      <trkpt lat="50.54198" lon="5.57838">
        <ele>90.5</ele>
        <time>2010-04-06T07:04:58Z</time>
      </trkpt>
      <trkpt lat="50.54204" lon="5.57854">
        <ele>91.46</ele>
        <time>2010-04-06T07:04:59Z</time>
      </trkpt>
      <trkpt lat="50.54218" lon="5.57885">
        <ele>93.87</ele>
        <time>2010-04-06T07:05:02Z</time>
      </trkpt>
      <trkpt lat="50.54224" lon="5.57886">
        <ele>95.31</ele>
        <time>2010-04-06T07:05:03Z</time>
      </trkpt>
      <trkpt lat="50.5423" lon="5.57885">
        <ele>95.79</ele>
        <time>2010-04-06T07:05:04Z</time>
      </trkpt>
      <trkpt lat="50.54237" lon="5.57884">
        <ele>96.75</ele>
        <time>2010-04-06T07:05:05Z</time>
      </trkpt>
      <trkpt lat="50.54243" lon="5.57887">
        <ele>98.19</ele>
        <time>2010-04-06T07:05:06Z</time>
      </trkpt>
      <trkpt lat="50.54248" lon="5.57893">
        <ele>99.63</ele>
        <time>2010-04-06T07:05:07Z</time>
      </trkpt>
      <trkpt lat="50.54252" lon="5.57903">
        <ele>100.6</ele>
        <time>2010-04-06T07:05:08Z</time>
      </trkpt>
      <trkpt lat="50.54256" lon="5.57916">
        <ele>102.04</ele>
        <time>2010-04-06T07:05:09Z</time>
      </trkpt>
      <trkpt lat="50.54304" lon="5.58024">
        <ele>111.65</ele>
        <time>2010-04-06T07:05:15Z</time>
      </trkpt>
      <trkpt lat="50.54368" lon="5.58134">
        <ele>123.67</ele>
        <time>2010-04-06T07:05:23Z</time>
      </trkpt>
      <trkpt lat="50.54403" lon="5.58183">
        <ele>130.4</ele>
        <time>2010-04-06T07:05:28Z</time>
      </trkpt>
      <trkpt lat="50.54411" lon="5.5819">
        <ele>131.36</ele>
        <time>2010-04-06T07:05:29Z</time>
      </trkpt>
      <trkpt lat="50.5442" lon="5.58194">
        <ele>132.32</ele>
        <time>2010-04-06T07:05:30Z</time>
      </trkpt>
      <trkpt lat="50.54427" lon="5.58197">
        <ele>133.76</ele>
        <time>2010-04-06T07:05:31Z</time>
      </trkpt>
      <trkpt lat="50.54433" lon="5.58193">
        <ele>134.72</ele>
        <time>2010-04-06T07:05:32Z</time>
      </trkpt>
      <trkpt lat="50.54439" lon="5.5819">
        <ele>135.68</ele>
        <time>2010-04-06T07:05:33Z</time>
      </trkpt>
      <trkpt lat="50.54445" lon="5.58183">
        <ele>137.13</ele>
        <time>2010-04-06T07:05:34Z</time>
      </trkpt>
      <trkpt lat="50.54487" lon="5.58161">
        <ele>140.97</ele>
        <time>2010-04-06T07:05:39Z</time>
      </trkpt>
      <trkpt lat="50.54495" lon="5.58153">
        <ele>141.93</ele>
        <time>2010-04-06T07:05:40Z</time>
      </trkpt>
      <trkpt lat="50.54502" lon="5.58142">
        <ele>142.89</ele>
        <time>2010-04-06T07:05:41Z</time>
      </trkpt>
      <trkpt lat="50.54535" lon="5.58094">
        <ele>147.7</ele>
        <time>2010-04-06T07:05:45Z</time>
      </trkpt>
      <trkpt lat="50.54567" lon="5.58065">
        <ele>151.06</ele>
        <time>2010-04-06T07:05:48Z</time>
      </trkpt>
      <trkpt lat="50.54578" lon="5.58057">
        <ele>152.51</ele>
        <time>2010-04-06T07:05:49Z</time>
      </trkpt>
      <trkpt lat="50.5459" lon="5.58051">
        <ele>154.43</ele>
        <time>2010-04-06T07:05:50Z</time>
      </trkpt>
      <trkpt lat="50.54601" lon="5.58046">
        <ele>155.87</ele>
        <time>2010-04-06T07:05:51Z</time>
      </trkpt>
      <trkpt lat="50.54611" lon="5.58044">
        <ele>157.31</ele>
        <time>2010-04-06T07:05:52Z</time>
      </trkpt>
      <trkpt lat="50.54621" lon="5.58042">
        <ele>157.79</ele>
        <time>2010-04-06T07:05:53Z</time>
      </trkpt>
      <trkpt lat="50.54654" lon="5.58029">
        <ele>161.16</ele>
        <time>2010-04-06T07:05:56Z</time>
      </trkpt>
      <trkpt lat="50.54664" lon="5.58021">
        <ele>162.6</ele>
        <time>2010-04-06T07:05:57Z</time>
      </trkpt>
      <trkpt lat="50.54673" lon="5.58009">
        <ele>163.56</ele>
        <time>2010-04-06T07:05:58Z</time>
      </trkpt>
      <trkpt lat="50.54681" lon="5.57993">
        <ele>165</ele>
        <time>2010-04-06T07:05:59Z</time>
      </trkpt>
      <trkpt lat="50.54689" lon="5.57973">
        <ele>166.45</ele>
        <time>2010-04-06T07:06:00Z</time>
      </trkpt>
      <trkpt lat="50.54697" lon="5.57948">
        <ele>167.89</ele>
        <time>2010-04-06T07:06:01Z</time>
      </trkpt>
      <trkpt lat="50.54708" lon="5.57924">
        <ele>170.29</ele>
        <time>2010-04-06T07:06:02Z</time>
      </trkpt>
      <trkpt lat="50.54718" lon="5.57902">
        <ele>172.69</ele>
        <time>2010-04-06T07:06:03Z</time>
      </trkpt>
      <trkpt lat="50.54783" lon="5.57796">
        <ele>183.75</ele>
        <time>2010-04-06T07:06:09Z</time>
      </trkpt>
      <trkpt lat="50.54799" lon="5.57779">
        <ele>186.15</ele>
        <time>2010-04-06T07:06:10Z</time>
      </trkpt>
      <trkpt lat="50.54815" lon="5.57765">
        <ele>188.56</ele>
        <time>2010-04-06T07:06:11Z</time>
      </trkpt>
      <trkpt lat="50.54917" lon="5.57659">
        <ele>204.42</ele>
        <time>2010-04-06T07:06:17Z</time>
      </trkpt>
      <trkpt lat="50.54945" lon="5.57593">
        <ele>212.59</ele>
        <time>2010-04-06T07:06:20Z</time>
      </trkpt>
      <trkpt lat="50.54951" lon="5.57568">
        <ele>214.51</ele>
        <time>2010-04-06T07:06:21Z</time>
      </trkpt>
      <trkpt lat="50.54957" lon="5.57543">
        <ele>216.91</ele>
        <time>2010-04-06T07:06:22Z</time>
      </trkpt>
      <trkpt lat="50.54987" lon="5.57464">
        <ele>224.61</ele>
        <time>2010-04-06T07:06:26Z</time>
      </trkpt>
      <trkpt lat="50.54998" lon="5.57445">
        <ele>226.05</ele>
        <time>2010-04-06T07:06:27Z</time>
      </trkpt>
      <trkpt lat="50.55029" lon="5.57388">
        <ele>228.45</ele>
        <time>2010-04-06T07:06:30Z</time>
      </trkpt>
      <trkpt lat="50.55035" lon="5.57364">
        <ele>228.45</ele>
        <time>2010-04-06T07:06:31Z</time>
      </trkpt>
      <trkpt lat="50.5504" lon="5.57337">
        <ele>227.97</ele>
        <time>2010-04-06T07:06:32Z</time>
      </trkpt>
      <trkpt lat="50.55045" lon="5.57308">
        <ele>226.53</ele>
        <time>2010-04-06T07:06:33Z</time>
      </trkpt>
      <trkpt lat="50.55051" lon="5.57279">
        <ele>224.61</ele>
        <time>2010-04-06T07:06:34Z</time>
      </trkpt>
      <trkpt lat="50.55093" lon="5.57152">
        <ele>210.67</ele>
        <time>2010-04-06T07:06:39Z</time>
      </trkpt>
      <trkpt lat="50.55107" lon="5.57131">
        <ele>208.26</ele>
        <time>2010-04-06T07:06:40Z</time>
      </trkpt>
      <trkpt lat="50.55121" lon="5.57112">
        <ele>204.9</ele>
        <time>2010-04-06T07:06:41Z</time>
      </trkpt>
      <trkpt lat="50.55135" lon="5.57091">
        <ele>202.49</ele>
        <time>2010-04-06T07:06:42Z</time>
      </trkpt>
      <trkpt lat="50.55147" lon="5.57069">
        <ele>199.61</ele>
        <time>2010-04-06T07:06:43Z</time>
      </trkpt>
      <trkpt lat="50.55176" lon="5.57006">
        <ele>190.48</ele>
        <time>2010-04-06T07:06:46Z</time>
      </trkpt>
      <trkpt lat="50.55187" lon="5.56994">
        <ele>188.08</ele>
        <time>2010-04-06T07:06:47Z</time>
      </trkpt>
      <trkpt lat="50.552" lon="5.56986">
        <ele>185.19</ele>
        <time>2010-04-06T07:06:48Z</time>
      </trkpt>
      <trkpt lat="50.55214" lon="5.56975">
        <ele>182.79</ele>
        <time>2010-04-06T07:06:49Z</time>
      </trkpt>
      <trkpt lat="50.5523" lon="5.56968">
        <ele>181.35</ele>
        <time>2010-04-06T07:06:50Z</time>
      </trkpt>
      <trkpt lat="50.55247" lon="5.56964">
        <ele>180.87</ele>
        <time>2010-04-06T07:06:51Z</time>
      </trkpt>
      <trkpt lat="50.55263" lon="5.56957">
        <ele>180.38</ele>
        <time>2010-04-06T07:06:52Z</time>
      </trkpt>
      <trkpt lat="50.55277" lon="5.56946">
        <ele>179.9</ele>
        <time>2010-04-06T07:06:53Z</time>
      </trkpt>
      <trkpt lat="50.5529" lon="5.5693">
        <ele>178.94</ele>
        <time>2010-04-06T07:06:54Z</time>
      </trkpt>
      <trkpt lat="50.55297" lon="5.56906">
        <ele>178.46</ele>
        <time>2010-04-06T07:06:55Z</time>
      </trkpt>
      <trkpt lat="50.55305" lon="5.56884">
        <ele>177.98</ele>
        <time>2010-04-06T07:06:56Z</time>
      </trkpt>
      <trkpt lat="50.5531" lon="5.56862">
        <ele>178.46</ele>
        <time>2010-04-06T07:06:57Z</time>
      </trkpt>
      <trkpt lat="50.55315" lon="5.56843">
        <ele>178.46</ele>
        <time>2010-04-06T07:06:58Z</time>
      </trkpt>
      <trkpt lat="50.55324" lon="5.56794">
        <ele>179.42</ele>
        <time>2010-04-06T07:07:01Z</time>
      </trkpt>
      <trkpt lat="50.55325" lon="5.56774">
        <ele>179.42</ele>
        <time>2010-04-06T07:07:02Z</time>
      </trkpt>
      <trkpt lat="50.55329" lon="5.56654">
        <ele>178.94</ele>
        <time>2010-04-06T07:07:07Z</time>
      </trkpt>
      <trkpt lat="50.55333" lon="5.56631">
        <ele>178.46</ele>
        <time>2010-04-06T07:07:08Z</time>
      </trkpt>
      <trkpt lat="50.55347" lon="5.56561">
        <ele>178.46</ele>
        <time>2010-04-06T07:07:11Z</time>
      </trkpt>
      <trkpt lat="50.55349" lon="5.56534">
        <ele>178.46</ele>
        <time>2010-04-06T07:07:12Z</time>
      </trkpt>
      <trkpt lat="50.55351" lon="5.56505">
        <ele>177.98</ele>
        <time>2010-04-06T07:07:13Z</time>
      </trkpt>
      <trkpt lat="50.55351" lon="5.56476">
        <ele>177.5</ele>
        <time>2010-04-06T07:07:14Z</time>
      </trkpt>
      <trkpt lat="50.5535" lon="5.56448">
        <ele>177.02</ele>
        <time>2010-04-06T07:07:15Z</time>
      </trkpt>
      <trkpt lat="50.55348" lon="5.56421">
        <ele>176.54</ele>
        <time>2010-04-06T07:07:16Z</time>
      </trkpt>
      <trkpt lat="50.55344" lon="5.56395">
        <ele>176.54</ele>
        <time>2010-04-06T07:07:17Z</time>
      </trkpt>
      <trkpt lat="50.55326" lon="5.56223">
        <ele>174.62</ele>
        <time>2010-04-06T07:07:24Z</time>
      </trkpt>
      <trkpt lat="50.55327" lon="5.56202">
        <ele>174.14</ele>
        <time>2010-04-06T07:07:25Z</time>
      </trkpt>
      <trkpt lat="50.55331" lon="5.56181">
        <ele>174.14</ele>
        <time>2010-04-06T07:07:26Z</time>
      </trkpt>
      <trkpt lat="50.55337" lon="5.56161">
        <ele>174.14</ele>
        <time>2010-04-06T07:07:27Z</time>
      </trkpt>
      <trkpt lat="50.55343" lon="5.56141">
        <ele>174.14</ele>
        <time>2010-04-06T07:07:28Z</time>
      </trkpt>
      <trkpt lat="50.55353" lon="5.56103">
        <ele>174.62</ele>
        <time>2010-04-06T07:07:30Z</time>
      </trkpt>
      <trkpt lat="50.55356" lon="5.56082">
        <ele>174.62</ele>
        <time>2010-04-06T07:07:31Z</time>
      </trkpt>
      <trkpt lat="50.55357" lon="5.5606">
        <ele>174.62</ele>
        <time>2010-04-06T07:07:32Z</time>
      </trkpt>
      <trkpt lat="50.55365" lon="5.55939">
        <ele>173.66</ele>
        <time>2010-04-06T07:07:37Z</time>
      </trkpt>
      <trkpt lat="50.55364" lon="5.55913">
        <ele>173.66</ele>
        <time>2010-04-06T07:07:38Z</time>
      </trkpt>
      <trkpt lat="50.55365" lon="5.55842">
        <ele>173.17</ele>
        <time>2010-04-06T07:07:41Z</time>
      </trkpt>
      <trkpt lat="50.5537" lon="5.55821">
        <ele>173.17</ele>
        <time>2010-04-06T07:07:42Z</time>
      </trkpt>
      <trkpt lat="50.55374" lon="5.55797">
        <ele>173.66</ele>
        <time>2010-04-06T07:07:43Z</time>
      </trkpt>
      <trkpt lat="50.55376" lon="5.5577">
        <ele>174.14</ele>
        <time>2010-04-06T07:07:44Z</time>
      </trkpt>
      <trkpt lat="50.55375" lon="5.55742">
        <ele>174.62</ele>
        <time>2010-04-06T07:07:45Z</time>
      </trkpt>
      <trkpt lat="50.55373" lon="5.55715">
        <ele>176.06</ele>
        <time>2010-04-06T07:07:46Z</time>
      </trkpt>
      <trkpt lat="50.55363" lon="5.55652">
        <ele>178.94</ele>
        <time>2010-04-06T07:07:48Z</time>
      </trkpt>
      <trkpt lat="50.55358" lon="5.5562">
        <ele>180.38</ele>
        <time>2010-04-06T07:07:49Z</time>
      </trkpt>
      <trkpt lat="50.55306" lon="5.55348">
        <ele>188.08</ele>
        <time>2010-04-06T07:07:57Z</time>
      </trkpt>
      <trkpt lat="50.55277" lon="5.55121">
        <ele>193.36</ele>
        <time>2010-04-06T07:08:04Z</time>
      </trkpt>
      <trkpt lat="50.55261" lon="5.55032">
        <ele>195.77</ele>
        <time>2010-04-06T07:08:08Z</time>
      </trkpt>
      <trkpt lat="50.55254" lon="5.55014">
        <ele>196.25</ele>
        <time>2010-04-06T07:08:09Z</time>
      </trkpt>
      <trkpt lat="50.55249" lon="5.54999">
        <ele>196.73</ele>
        <time>2010-04-06T07:08:10Z</time>
      </trkpt>
      <trkpt lat="50.55246" lon="5.54988">
        <ele>197.69</ele>
        <time>2010-04-06T07:08:11Z</time>
      </trkpt>
      <trkpt lat="50.55246" lon="5.54975">
        <ele>198.65</ele>
        <time>2010-04-06T07:08:12Z</time>
      </trkpt>
      <trkpt lat="50.55248" lon="5.5496">
        <ele>199.13</ele>
        <time>2010-04-06T07:08:13Z</time>
      </trkpt>
      <trkpt lat="50.55254" lon="5.54949">
        <ele>200.09</ele>
        <time>2010-04-06T07:08:14Z</time>
      </trkpt>
      <trkpt lat="50.55263" lon="5.5493">
        <ele>200.57</ele>
        <time>2010-04-06T07:08:15Z</time>
      </trkpt>
      <trkpt lat="50.55279" lon="5.54888">
        <ele>203.94</ele>
        <time>2010-04-06T07:08:17Z</time>
      </trkpt>
      <trkpt lat="50.55321" lon="5.54824">
        <ele>207.78</ele>
        <time>2010-04-06T07:08:21Z</time>
      </trkpt>
      <trkpt lat="50.55339" lon="5.54816">
        <ele>210.19</ele>
        <time>2010-04-06T07:08:22Z</time>
      </trkpt>
      <trkpt lat="50.55359" lon="5.54811">
        <ele>212.59</ele>
        <time>2010-04-06T07:08:23Z</time>
      </trkpt>
      <trkpt lat="50.55378" lon="5.54807">
        <ele>214.51</ele>
        <time>2010-04-06T07:08:24Z</time>
      </trkpt>
      <trkpt lat="50.55396" lon="5.54806">
        <ele>216.43</ele>
        <time>2010-04-06T07:08:25Z</time>
      </trkpt>
      <trkpt lat="50.55414" lon="5.54807">
        <ele>219.8</ele>
        <time>2010-04-06T07:08:26Z</time>
      </trkpt>
      <trkpt lat="50.5543" lon="5.54808">
        <ele>221.72</ele>
        <time>2010-04-06T07:08:27Z</time>
      </trkpt>
      <trkpt lat="50.55562" lon="5.54832">
        <ele>239.02</ele>
        <time>2010-04-06T07:08:34Z</time>
      </trkpt>
      <trkpt lat="50.55592" lon="5.54842">
        <ele>242.87</ele>
        <time>2010-04-06T07:08:36Z</time>
      </trkpt>
      <trkpt lat="50.55605" lon="5.54851">
        <ele>244.79</ele>
        <time>2010-04-06T07:08:37Z</time>
      </trkpt>
      <trkpt lat="50.55616" lon="5.54865">
        <ele>246.23</ele>
        <time>2010-04-06T07:08:38Z</time>
      </trkpt>
      <trkpt lat="50.55627" lon="5.54881">
        <ele>248.16</ele>
        <time>2010-04-06T07:08:39Z</time>
      </trkpt>
      <trkpt lat="50.55637" lon="5.54899">
        <ele>249.6</ele>
        <time>2010-04-06T07:08:40Z</time>
      </trkpt>
      <trkpt lat="50.55656" lon="5.54928">
        <ele>252</ele>
        <time>2010-04-06T07:08:42Z</time>
      </trkpt>
      <trkpt lat="50.55667" lon="5.54938">
        <ele>252.96</ele>
        <time>2010-04-06T07:08:43Z</time>
      </trkpt>
      <trkpt lat="50.55679" lon="5.54943">
        <ele>253.93</ele>
        <time>2010-04-06T07:08:44Z</time>
      </trkpt>
      <trkpt lat="50.55694" lon="5.54945">
        <ele>255.37</ele>
        <time>2010-04-06T07:08:45Z</time>
      </trkpt>
      <trkpt lat="50.55711" lon="5.54945">
        <ele>256.33</ele>
        <time>2010-04-06T07:08:46Z</time>
      </trkpt>
      <trkpt lat="50.55745" lon="5.54944">
        <ele>257.77</ele>
        <time>2010-04-06T07:08:48Z</time>
      </trkpt>
      <trkpt lat="50.55761" lon="5.54938">
        <ele>258.73</ele>
        <time>2010-04-06T07:08:49Z</time>
      </trkpt>
      <trkpt lat="50.55776" lon="5.54928">
        <ele>259.69</ele>
        <time>2010-04-06T07:08:50Z</time>
      </trkpt>
      <trkpt lat="50.55793" lon="5.54914">
        <ele>260.17</ele>
        <time>2010-04-06T07:08:51Z</time>
      </trkpt>
      <trkpt lat="50.55811" lon="5.54896">
        <ele>261.14</ele>
        <time>2010-04-06T07:08:52Z</time>
      </trkpt>
      <trkpt lat="50.55945" lon="5.5477">
        <ele>268.35</ele>
        <time>2010-04-06T07:08:59Z</time>
      </trkpt>
      <trkpt lat="50.55962" lon="5.54759">
        <ele>269.31</ele>
        <time>2010-04-06T07:09:00Z</time>
      </trkpt>
      <trkpt lat="50.55982" lon="5.54753">
        <ele>270.27</ele>
        <time>2010-04-06T07:09:01Z</time>
      </trkpt>
      <trkpt lat="50.56003" lon="5.5475">
        <ele>271.23</ele>
        <time>2010-04-06T07:09:02Z</time>
      </trkpt>
      <trkpt lat="50.56024" lon="5.54748">
        <ele>272.19</ele>
        <time>2010-04-06T07:09:03Z</time>
      </trkpt>
      <trkpt lat="50.56123" lon="5.54724">
        <ele>275.07</ele>
        <time>2010-04-06T07:09:09Z</time>
      </trkpt>
      <trkpt lat="50.56133" lon="5.54725">
        <ele>275.56</ele>
        <time>2010-04-06T07:09:10Z</time>
      </trkpt>
      <trkpt lat="50.5614" lon="5.5473">
        <ele>275.56</ele>
        <time>2010-04-06T07:09:11Z</time>
      </trkpt>
      <trkpt lat="50.56145" lon="5.54739">
        <ele>275.07</ele>
        <time>2010-04-06T07:09:12Z</time>
      </trkpt>
      <trkpt lat="50.56149" lon="5.54753">
        <ele>275.56</ele>
        <time>2010-04-06T07:09:13Z</time>
      </trkpt>
      <trkpt lat="50.56151" lon="5.5477">
        <ele>275.07</ele>
        <time>2010-04-06T07:09:14Z</time>
      </trkpt>
      <trkpt lat="50.56154" lon="5.5479">
        <ele>275.56</ele>
        <time>2010-04-06T07:09:15Z</time>
      </trkpt>
      <trkpt lat="50.56161" lon="5.54836">
        <ele>274.59</ele>
        <time>2010-04-06T07:09:18Z</time>
      </trkpt>
      <trkpt lat="50.56165" lon="5.54842">
        <ele>274.59</ele>
        <time>2010-04-06T07:09:19Z</time>
      </trkpt>
      <trkpt lat="50.56171" lon="5.54844">
        <ele>274.59</ele>
        <time>2010-04-06T07:09:20Z</time>
      </trkpt>
      <trkpt lat="50.56179" lon="5.54837">
        <ele>275.07</ele>
        <time>2010-04-06T07:09:21Z</time>
      </trkpt>
      <trkpt lat="50.5619" lon="5.5483">
        <ele>275.07</ele>
        <time>2010-04-06T07:09:22Z</time>
      </trkpt>
      <trkpt lat="50.56202" lon="5.54822">
        <ele>275.07</ele>
        <time>2010-04-06T07:09:23Z</time>
      </trkpt>
      <trkpt lat="50.56227" lon="5.54812">
        <ele>274.59</ele>
        <time>2010-04-06T07:09:25Z</time>
      </trkpt>
      <trkpt lat="50.56239" lon="5.54812">
        <ele>274.11</ele>
        <time>2010-04-06T07:09:26Z</time>
      </trkpt>
      <trkpt lat="50.56252" lon="5.54816">
        <ele>274.11</ele>
        <time>2010-04-06T07:09:27Z</time>
      </trkpt>
      <trkpt lat="50.56265" lon="5.54824">
        <ele>274.59</ele>
        <time>2010-04-06T07:09:28Z</time>
      </trkpt>
      <trkpt lat="50.5628" lon="5.54835">
        <ele>274.59</ele>
        <time>2010-04-06T07:09:29Z</time>
      </trkpt>
      <trkpt lat="50.56398" lon="5.54904">
        <ele>274.59</ele>
        <time>2010-04-06T07:09:35Z</time>
      </trkpt>
      <trkpt lat="50.56543" lon="5.54935">
        <ele>275.07</ele>
        <time>2010-04-06T07:09:42Z</time>
      </trkpt>
      <trkpt lat="50.56734" lon="5.54996">
        <ele>273.15</ele>
        <time>2010-04-06T07:09:50Z</time>
      </trkpt>
      <trkpt lat="50.56868" lon="5.55113">
        <ele>274.59</ele>
        <time>2010-04-06T07:09:56Z</time>
      </trkpt>
      <trkpt lat="50.57039" lon="5.55252">
        <ele>274.11</ele>
        <time>2010-04-06T07:10:04Z</time>
      </trkpt>
      <trkpt lat="50.57191" lon="5.55288">
        <ele>271.71</ele>
        <time>2010-04-06T07:10:11Z</time>
      </trkpt>
      <trkpt lat="50.57469" lon="5.55328">
        <ele>263.06</ele>
        <time>2010-04-06T07:10:24Z</time>
      </trkpt>
      <trkpt lat="50.57723" lon="5.55364">
        <ele>257.29</ele>
        <time>2010-04-06T07:10:36Z</time>
      </trkpt>
      <trkpt lat="50.57871" lon="5.55337">
        <ele>253.44</ele>
        <time>2010-04-06T07:10:42Z</time>
      </trkpt>
      <trkpt lat="50.58086" lon="5.55256">
        <ele>250.56</ele>
        <time>2010-04-06T07:10:49Z</time>
      </trkpt>
      <trkpt lat="50.58327" lon="5.55167">
        <ele>241.91</ele>
        <time>2010-04-06T07:10:58Z</time>
      </trkpt>
      <trkpt lat="50.58496" lon="5.55049">
        <ele>230.85</ele>
        <time>2010-04-06T07:11:05Z</time>
      </trkpt>
      <trkpt lat="50.58614" lon="5.54876">
        <ele>218.36</ele>
        <time>2010-04-06T07:11:11Z</time>
      </trkpt>
      <trkpt lat="50.58802" lon="5.54579">
        <ele>195.28</ele>
        <time>2010-04-06T07:11:22Z</time>
      </trkpt>
      <trkpt lat="50.58955" lon="5.54355">
        <ele>181.83</ele>
        <time>2010-04-06T07:11:32Z</time>
      </trkpt>
      <trkpt lat="50.59084" lon="5.54255">
        <ele>177.5</ele>
        <time>2010-04-06T07:11:39Z</time>
      </trkpt>
      <trkpt lat="50.59291" lon="5.54145">
        <ele>165.96</ele>
        <time>2010-04-06T07:11:48Z</time>
      </trkpt>
      <trkpt lat="50.59434" lon="5.5412">
        <ele>156.35</ele>
        <time>2010-04-06T07:11:53Z</time>
      </trkpt>
      <trkpt lat="50.59601" lon="5.54167">
        <ele>146.26</ele>
        <time>2010-04-06T07:11:59Z</time>
      </trkpt>
      <trkpt lat="50.5987" lon="5.54248">
        <ele>130.4</ele>
        <time>2010-04-06T07:12:09Z</time>
      </trkpt>
      <trkpt lat="50.60024" lon="5.54227">
        <ele>120.78</ele>
        <time>2010-04-06T07:12:15Z</time>
      </trkpt>
      <trkpt lat="50.60304" lon="5.54149">
        <ele>97.71</ele>
        <time>2010-04-06T07:12:26Z</time>
      </trkpt>
      <trkpt lat="50.60482" lon="5.54186">
        <ele>84.25</ele>
        <time>2010-04-06T07:12:33Z</time>
      </trkpt>
      <trkpt lat="50.60646" lon="5.54297">
        <ele>77.04</ele>
        <time>2010-04-06T07:12:40Z</time>
      </trkpt>
      <trkpt lat="50.60771" lon="5.544">
        <ele>74.16</ele>
        <time>2010-04-06T07:12:47Z</time>
      </trkpt>
      <trkpt lat="50.60887" lon="5.54462">
        <ele>63.5</ele>
      </trkpt>
      <trkpt lat="50.61011" lon="5.54517">
        <ele>65.5</ele>
      </trkpt>
      <trkpt lat="50.61051" lon="5.54522">
        <ele>64.5</ele>
      </trkpt>
      <trkpt lat="50.61195" lon="5.53902">
        <ele>66.3</ele>
      </trkpt>
      <trkpt lat="50.61487" lon="5.54061">
        <ele>63.5</ele>
      </trkpt>
      <trkpt lat="50.61487" lon="5.54199">
        <ele>61.2</ele>
      </trkpt>
      <trkpt lat="50.61532" lon="5.54242">
        <ele>59.2</ele>
      </trkpt>
      <trkpt lat="50.61536" lon="5.54242">
        <ele>59.2</ele>
      </trkpt>
      <trkpt lat="50.61653" lon="5.54149">
        <ele>66.6</ele>
      </trkpt>
      <trkpt lat="50.61702" lon="5.5422">
        <ele>63.5</ele>
      </trkpt>
      <trkpt lat="50.61792" lon="5.5427">
        <ele>65.4</ele>
      </trkpt>
      <trkpt lat="50.61797" lon="5.5427">
        <ele>65.7</ele>
      </trkpt>
      <trkpt lat="50.61859" lon="5.5422">
        <ele>72.8</ele>
      </trkpt>
      <trkpt lat="50.6185" lon="5.53974">
        <ele>70.2</ele>
      </trkpt>
      <trkpt lat="50.61904" lon="5.53826">
        <ele>76</ele>
      </trkpt>
      <trkpt lat="50.61963" lon="5.53453">
        <ele>69</ele>
      </trkpt>
      <trkpt lat="50.62057" lon="5.53283">
        <ele>71.2</ele>
      </trkpt>
      <trkpt lat="50.62089" lon="5.53217">
        <ele>72.9</ele>
      </trkpt>
      <trkpt lat="50.62147" lon="5.53327">
        <ele>81.1</ele>
      </trkpt>
      <trkpt lat="50.62214" lon="5.53458">
        <ele>96.7</ele>
      </trkpt>
      <trkpt lat="50.62277" lon="5.5359">
        <ele>107.9</ele>
      </trkpt>
      <trkpt lat="50.62322" lon="5.5376">
        <ele>121.3</ele>
      </trkpt>
      <trkpt lat="50.62306" lon="5.53819">
        <ele>127.3</ele>
      </trkpt>
      <trkpt lat="50.62306" lon="5.53821">
        <ele>127.5</ele>
      </trkpt>
      <trkpt lat="50.62281" lon="5.53862">
        <ele>132.6</ele>
      </trkpt>
      <trkpt lat="50.62292" lon="5.53939">
        <ele>139.5</ele>
      </trkpt>
      <trkpt lat="50.62292" lon="5.53968">
        <ele>142.1</ele>
      </trkpt>
      <trkpt lat="50.62319" lon="5.53941">
        <ele>140.1</ele>
      </trkpt>
      <trkpt lat="50.62335" lon="5.53876">
        <ele>132.9</ele>
      </trkpt>
      <trkpt lat="50.62357" lon="5.53876">
        <ele>137</ele>
      </trkpt>
      <trkpt lat="50.62378" lon="5.53893">
        <ele>142.1</ele>
      </trkpt>
      <trkpt lat="50.62376" lon="5.53937">
        <ele>144.8</ele>
      </trkpt>
      <trkpt lat="50.62323" lon="5.5402">
        <ele>147.2</ele>
      </trkpt>
      <trkpt lat="50.62301" lon="5.54022">
        <ele>146.7</ele>
      </trkpt>
      <trkpt lat="50.6227" lon="5.53987">
        <ele>143.4</ele>
      </trkpt>
      <trkpt lat="50.62243" lon="5.54007">
        <ele>144.3</ele>
      </trkpt>
      <trkpt lat="50.62276" lon="5.54101">
        <ele>150.8</ele>
      </trkpt>
      <trkpt lat="50.62303" lon="5.54143">
        <ele>154.9</ele>
      </trkpt>
      <trkpt lat="50.62364" lon="5.54176">
        <ele>162</ele>
      </trkpt>
      <trkpt lat="50.62387" lon="5.54215">
        <ele>166.6</ele>
      </trkpt>
      <trkpt lat="50.62389" lon="5.54218">
        <ele>166.9</ele>
      </trkpt>
      <trkpt lat="50.62502" lon="5.5427">
        <ele>173.8</ele>
      </trkpt>
      <trkpt lat="50.62626" lon="5.54501">
        <ele>173</ele>
      </trkpt>
      <trkpt lat="50.62716" lon="5.54476">
        <ele>170.7</ele>
      </trkpt>
      <trkpt lat="50.6272" lon="5.54538">
        <ele>169.2</ele>
      </trkpt>
      <trkpt lat="50.62739" lon="5.54555">
        <ele>167.6</ele>
      </trkpt>
      <trkpt lat="50.6277" lon="5.54518">
        <ele>168.2</ele>
      </trkpt>
      <trkpt lat="50.62862" lon="5.54553">
        <ele>168.1</ele>
      </trkpt>
      <trkpt lat="50.62973" lon="5.54698">
        <ele>164.2</ele>
      </trkpt>
      <trkpt lat="50.63109" lon="5.54832">
        <ele>161.2</ele>
      </trkpt>
      <trkpt lat="50.63171" lon="5.54919">
        <ele>157.9</ele>
      </trkpt>
      <trkpt lat="50.63214" lon="5.54933">
        <ele>158.4</ele>
      </trkpt>
      <trkpt lat="50.633" lon="5.54884">
        <ele>159.8</ele>
      </trkpt>
      <trkpt lat="50.63323" lon="5.54891">
        <ele>158.4</ele>
      </trkpt>
      <trkpt lat="50.63341" lon="5.54876">
        <ele>158.6</ele>
      </trkpt>
      <trkpt lat="50.63341" lon="5.54878">
        <ele>158.5</ele>
      </trkpt>
      <trkpt lat="50.63435" lon="5.54963">
        <ele>155.3</ele>
      </trkpt>
      <trkpt lat="50.63528" lon="5.55112">
        <ele>140.9</ele>
      </trkpt>
      <trkpt lat="50.63629" lon="5.55297">
        <ele>130.2</ele>
      </trkpt>
      <trkpt lat="50.63742" lon="5.55459">
        <ele>122</ele>
      </trkpt>
      <trkpt lat="50.63794" lon="5.55529">
        <ele>120.1</ele>
      </trkpt>
      <trkpt lat="50.63859" lon="5.55584">
        <ele>118.3</ele>
      </trkpt>
      <trkpt lat="50.63932" lon="5.55689">
        <ele>114.4</ele>
      </trkpt>
      <trkpt lat="50.63934" lon="5.55689">
        <ele>114.4</ele>
      </trkpt>
      <trkpt lat="50.63975" lon="5.55742">
        <ele>114.4</ele>
      </trkpt>
      <trkpt lat="50.64053" lon="5.55759">
        <ele>114.1</ele>
      </trkpt>
      <trkpt lat="50.64085" lon="5.55781">
        <ele>113.2</ele>
      </trkpt>
      <trkpt lat="50.64083" lon="5.55779">
        <ele>113.3</ele>
      </trkpt>
      <trkpt lat="50.64216" lon="5.55632">
        <ele>109.5</ele>
      </trkpt>
      <trkpt lat="50.64319" lon="5.55518">
        <ele>114.3</ele>
      </trkpt>
      <trkpt lat="50.64362" lon="5.55474">
        <ele>115.9</ele>
      </trkpt>
      <trkpt lat="50.64434" lon="5.55437">
        <ele>113.7</ele>
      </trkpt>
      <trkpt lat="50.64565" lon="5.55378">
        <ele>107.9</ele>
      </trkpt>
      <trkpt lat="50.64615" lon="5.5531">
        <ele>106.3</ele>
      </trkpt>
      <trkpt lat="50.64665" lon="5.55316">
        <ele>101.2</ele>
      </trkpt>
      <trkpt lat="50.64876" lon="5.55393">
        <ele>101.9</ele>
      </trkpt>
      <trkpt lat="50.64978" lon="5.55014">
        <ele>107.2</ele>
      </trkpt>
      <trkpt lat="50.65007" lon="5.54898">
        <ele>105.8</ele>
      </trkpt>
      <trkpt lat="50.65003" lon="5.54775">
        <ele>103.9</ele>
      </trkpt>
      <trkpt lat="50.65093" lon="5.54501">
        <ele>113.9</ele>
      </trkpt>
      <trkpt lat="50.65416" lon="5.53551">
        <ele>155.9</ele>
      </trkpt>
      <trkpt lat="50.65548" lon="5.53198">
        <ele>176.8</ele>
      </trkpt>
      <trkpt lat="50.65619" lon="5.53029">
        <ele>182.9</ele>
      </trkpt>
      <trkpt lat="50.65418" lon="5.52819">
        <ele>183</ele>
      </trkpt>
      <trkpt lat="50.65424" lon="5.52819">
        <ele>183.1</ele>
      </trkpt>
    </trkseg>
  </trk>
</gpx>